Time;durP1;ratioP1;P1;durP2;ratioP2;P2;SDS_P1;SDS_P2;PMS_P1;PMS_P2;Temp;Humidity;BMP_temperature;BMP_pressure;BME280_temperature;BME280_humidity;BME280_pressure;Samples;Min_cycle;Max_cycle;Signal;HPM_P1;HPM_P2
2022/06/25 00:01:46;;;;;;;7.72;6.30;;;;;;;28.97;44.85;100831.28;5054242;28;20437;-73
2022/06/25 00:06:55;;;;;;;9.02;5.70;;;;;;;29.19;43.60;100828.38;5071773;28;20039;-73
2022/06/25 00:09:21;;;;;;;7.20;5.70;;;;;;;28.58;45.38;100831.91;5054095;28;20017;-74
2022/06/25 00:14:31;;;;;;;7.78;5.45;;;;;;;28.66;44.52;100836.66;5071628;28;20458;-73
2022/06/25 00:16:56;;;;;;;8.30;5.60;;;;;;;28.67;45.17;100839.19;5053964;28;20024;-75
2022/06/25 00:19:23;;;;;;;7.53;5.40;;;;;;;28.47;45.65;100838.22;5053854;28;20119;-74
2022/06/25 00:21:49;;;;;;;8.35;6.03;;;;;;;28.51;45.05;100834.28;5071242;28;20447;-74
2022/06/25 00:24:16;;;;;;;8.88;6.22;;;;;;;28.26;45.87;100836.38;5053613;28;20032;-74
2022/06/25 00:26:42;;;;;;;9.30;5.50;;;;;;;28.47;45.10;100838.22;5071649;28;20476;-74
2022/06/25 00:29:09;;;;;;;6.85;5.78;;;;;;;28.51;45.27;100836.09;5053301;28;20028;-74
2022/06/25 00:31:34;;;;;;;7.05;6.07;;;;;;;28.26;45.54;100841.75;5071840;28;20100;-74
2022/06/25 00:34:00;;;;;;;6.97;6.18;;;;;;;28.16;45.73;100840.81;5070948;28;20112;-74
2022/06/25 00:36:25;;;;;;;8.10;6.20;;;;;;;28.17;45.97;100837.16;5053535;28;20035;-73
2022/06/25 00:38:50;;;;;;;13.30;6.70;;;;;;;27.81;47.10;100841.06;5054371;28;20484;-74
2022/06/25 00:41:16;;;;;;;9.95;5.85;;;;;;;27.82;46.71;100849.00;5083375;28;20399;-74
2022/06/25 00:43:41;;;;;;;8.93;5.18;;;;;;;27.70;46.48;100844.66;5094534;28;20027;-73
2022/06/25 00:46:07;;;;;;;7.10;5.82;;;;;;;27.62;46.67;100841.75;5094443;28;20091;-74
2022/06/25 00:48:33;;;;;;;7.03;5.30;;;;;;;27.51;47.90;100840.78;5093990;28;20386;-74
2022/06/25 00:51:01;;;;;;;7.22;4.95;;;;;;;26.46;49.66;100843.66;5094583;28;20019;-74
2022/06/25 00:53:31;;;;;;;6.55;5.50;;;;;;;26.85;49.30;100846.91;5095786;28;20031;-74
2022/06/25 00:55:58;;;;;;;7.35;5.55;;;;;;;26.53;50.66;100850.25;5093588;28;20547;-74
2022/06/25 00:58:33;;;;;;;7.20;5.00;;;;;;;26.27;51.29;100848.69;5095774;28;20472;-74
2022/06/25 01:00:59;;;;;;;5.45;4.78;;;;;;;26.02;52.60;100850.53;5095780;28;20023;-74
2022/06/25 01:03:26;;;;;;;9.27;5.47;;;;;;;26.68;50.62;100858.03;5093484;28;20032;-74
2022/06/25 01:05:52;;;;;;;8.77;5.57;;;;;;;27.00;48.99;100865.44;5095463;28;20024;-74
2022/06/25 01:08:18;;;;;;;7.32;5.30;;;;;;;27.54;47.82;100855.78;5094332;28;20024;-74
2022/06/25 01:10:44;;;;;;;5.93;4.75;;;;;;;27.54;47.75;100862.00;5093197;28;20074;-74
2022/06/25 01:13:09;;;;;;;7.53;4.53;;;;;;;27.46;47.22;100868.97;5094301;28;20387;-73
2022/06/25 01:15:35;;;;;;;7.32;5.00;;;;;;;26.75;50.04;100875.41;5094207;28;20028;-73
2022/06/25 01:18:01;;;;;;;5.65;4.35;;;;;;;27.58;47.25;100874.19;5094620;28;20091;-73
2022/06/25 01:20:26;;;;;;;8.02;4.43;;;;;;;27.47;47.50;100870.69;5094024;28;20027;-73
2022/06/25 01:22:52;;;;;;;8.57;4.43;;;;;;;27.20;47.95;100871.88;5093530;28;20024;-74
2022/06/25 01:25:18;;;;;;;6.03;3.90;;;;;;;27.12;47.67;100877.88;5093273;28;20016;-74
2022/06/25 01:27:43;;;;;;;5.93;3.97;;;;;;;26.26;50.73;100884.50;5093855;28;20399;-74
2022/06/25 01:30:11;;;;;;;6.70;3.88;;;;;;;27.13;48.29;100884.94;5093213;28;20024;-73
2022/06/25 01:32:37;;;;;;;5.82;4.15;;;;;;;26.78;49.63;100880.53;5094898;28;20360;-74
2022/06/25 01:35:03;;;;;;;4.80;4.30;;;;;;;27.24;48.09;100884.94;5093653;28;20020;-74
2022/06/25 01:37:28;;;;;;;8.38;4.22;;;;;;;26.70;48.60;100888.31;5092903;28;20092;-73
2022/06/25 01:39:55;;;;;;;5.25;4.00;;;;;;;26.46;49.71;100897.25;5093288;28;20048;-74
2022/06/25 01:45:06;;;;;;;4.97;4.07;;;;;;;27.12;48.51;100893.09;5093969;28;20035;-73
2022/06/25 01:47:32;;;;;;;7.20;4.10;;;;;;;27.05;48.14;100898.09;5094537;28;20055;-74
2022/06/25 01:49:57;;;;;;;10.02;4.53;;;;;;;26.48;50.06;100906.00;5093158;28;20055;-74
2022/06/25 01:52:22;;;;;;;4.43;3.88;;;;;;;26.71;49.05;100908.78;5094087;28;20030;-73
2022/06/25 01:54:48;;;;;;;4.18;3.67;;;;;;;26.76;48.96;100909.28;5094665;28;20095;-73
2022/06/25 01:57:13;;;;;;;6.00;3.75;;;;;;;26.59;48.86;100910.53;5093215;28;20366;-74
2022/06/25 01:59:39;;;;;;;6.45;4.10;;;;;;;26.48;49.56;100911.38;5092493;28;20278;-74
2022/06/25 02:02:04;;;;;;;5.35;3.83;;;;;;;26.27;50.09;100910.31;5092964;28;20020;-73
2022/06/25 02:04:29;;;;;;;6.93;3.88;;;;;;;26.40;50.30;100914.63;5094336;28;20031;-74
2022/06/25 02:06:55;;;;;;;4.03;3.47;;;;;;;26.21;50.07;100920.53;5092570;28;20020;-73
2022/06/25 02:09:20;;;;;;;4.90;3.17;;;;;;;25.88;51.03;100919.34;5093105;28;20484;-73
2022/06/25 02:11:45;;;;;;;5.50;3.70;;;;;;;26.26;49.61;100920.19;5094223;28;20477;-73
2022/06/25 02:14:11;;;;;;;5.05;3.20;;;;;;;26.08;51.09;100922.41;5092088;28;20450;-73
2022/06/25 02:16:36;;;;;;;7.10;3.80;;;;;;;26.82;48.37;100918.66;5092876;28;20540;-73
2022/06/25 02:19:02;;;;;;;4.40;3.22;;;;;;;26.56;49.03;100925.03;5094144;28;20035;-74
2022/06/25 02:21:27;;;;;;;4.25;3.10;;;;;;;25.86;50.50;100926.63;5091955;28;20028;-74
2022/06/25 02:23:52;;;;;;;6.38;3.38;;;;;;;25.78;51.30;100934.38;5093871;28;20111;-74
2022/06/25 02:26:18;;;;;;;7.40;3.88;;;;;;;26.11;50.08;100927.53;5091779;28;20016;-74
2022/06/25 02:28:43;;;;;;;6.88;4.20;;;;;;;25.91;51.51;100928.94;5092313;28;20395;-74
2022/06/25 02:31:08;;;;;;;7.10;3.30;;;;;;;26.16;50.23;100933.41;5092655;28;20138;-73
2022/06/25 02:33:34;;;;;;;4.75;3.60;;;;;;;25.98;49.88;100924.00;5091736;28;20020;-74
2022/06/25 02:35:59;;;;;;;8.00;4.20;;;;;;;25.86;50.42;100934.66;5094163;28;20035;-74
2022/06/25 02:38:24;;;;;;;4.60;3.92;;;;;;;26.01;50.05;100929.16;5092338;28;20514;-74
2022/06/25 02:40:50;;;;;;;4.57;4.07;;;;;;;26.26;49.92;100932.72;5091502;28;20051;-74
2022/06/25 02:43:15;;;;;;;5.38;3.30;;;;;;;25.73;51.25;100936.50;5092261;28;20020;-74
2022/06/25 02:45:41;;;;;;;6.28;4.38;;;;;;;25.88;50.17;100940.78;5092154;28;20092;-74
2022/06/25 02:48:06;;;;;;;6.95;4.28;;;;;;;25.86;50.30;100941.84;5091374;28;20484;-73
2022/06/25 02:50:31;;;;;;;9.32;3.80;;;;;;;25.72;50.69;100950.88;5092139;28;20047;-74
2022/06/25 02:52:57;;;;;;;8.55;3.85;;;;;;;26.13;49.16;100951.50;5092062;28;20028;-73
2022/06/25 03:00:51;;;;;;;3.70;3.25;;;;;;;26.64;47.61;100953.06;5093696;28;20058;-74
2022/06/25 03:03:16;;;;;;;7.90;3.80;;;;;;;26.09;49.57;100966.97;5090710;28;20384;-75
2022/06/25 03:05:41;;;;;;;4.38;3.08;;;;;;;26.47;48.17;100965.91;5092028;28;20020;-74
2022/06/25 03:08:07;;;;;;;6.60;3.95;;;;;;;25.91;50.04;100961.09;5091834;28;20472;-74
2022/06/25 03:10:32;;;;;;;6.60;3.45;;;;;;;26.01;48.89;100972.00;5091126;28;20027;-74
2022/06/25 03:12:57;;;;;;;6.43;4.47;;;;;;;26.27;48.21;100966.56;5091905;28;20059;-74
2022/06/25 03:15:23;;;;;;;6.20;3.42;;;;;;;25.94;49.68;100960.88;5091790;28;20016;-74
2022/06/25 03:17:48;;;;;;;7.20;2.97;;;;;;;26.19;48.36;100965.31;5090613;28;20024;-74
2022/06/25 03:20:14;;;;;;;5.38;3.42;;;;;;;26.46;47.91;100963.34;5091589;28;20122;-74
2022/06/25 03:22:39;;;;;;;8.80;3.55;;;;;;;25.62;49.93;100976.59;5090902;28;20127;-74
2022/06/25 03:25:05;;;;;;;5.88;3.55;;;;;;;26.02;48.91;100979.06;5091330;28;20032;-74
2022/06/25 03:27:30;;;;;;;7.70;3.63;;;;;;;26.01;49.06;100972.00;5092735;28;20132;-74
2022/06/25 03:29:56;;;;;;;6.43;3.08;;;;;;;26.68;46.62;100976.00;5090846;28;20024;-74
2022/06/25 03:32:21;;;;;;;9.07;2.75;;;;;;;26.71;46.33;100965.94;5091643;28;20020;-74
2022/06/25 03:34:47;;;;;;;5.82;3.08;;;;;;;26.31;48.03;100974.28;5091396;28;20008;-74
2022/06/25 03:37:12;;;;;;;6.60;3.08;;;;;;;25.34;49.77;100984.75;5090852;28;20471;-74
2022/06/25 03:39:37;;;;;;;6.82;2.90;;;;;;;25.89;48.98;100985.28;5089889;28;20430;-75
2022/06/25 03:42:03;;;;;;;6.57;3.17;;;;;;;25.38;50.30;100988.06;5054211;28;20027;-75
2022/06/25 03:44:28;;;;;;;4.53;2.75;;;;;;;26.04;48.65;100987.88;5071269;28;20411;-75
2022/06/25 03:46:54;;;;;;;4.65;2.60;;;;;;;26.37;47.97;100989.03;5072122;28;20107;-75
2022/06/25 03:49:19;;;;;;;5.63;2.65;;;;;;;26.46;46.93;100987.47;5054292;28;20039;-75
2022/06/25 03:51:45;;;;;;;3.58;2.67;;;;;;;25.99;47.78;100990.00;5071538;28;20548;-75
2022/06/25 03:54:10;;;;;;;10.32;2.80;;;;;;;26.11;46.83;100997.16;5054345;28;20029;-74
2022/06/25 03:56:35;;;;;;;3.10;2.38;;;;;;;26.07;47.13;100998.34;5054098;28;20107;-75
2022/06/25 03:59:01;;;;;;;4.95;2.08;;;;;;;26.30;46.17;100993.13;5071614;28;20025;-74
2022/06/25 04:01:27;;;;;;;7.07;2.47;;;;;;;25.88;47.62;100998.78;5072223;28;20392;-75
2022/06/25 04:03:53;;;;;;;5.00;2.20;;;;;;;25.38;48.56;101009.47;5072119;28;20031;-75
2022/06/25 04:06:18;;;;;;;2.85;2.00;;;;;;;25.36;49.64;101003.34;5053145;28;20024;-75
2022/06/25 04:08:44;;;;;;;4.20;1.90;;;;;;;25.82;47.80;101002.78;5054165;28;20044;-74
2022/06/25 04:11:10;;;;;;;6.60;1.95;;;;;;;25.22;49.18;100999.81;5053896;28;20074;-75
2022/06/25 04:13:36;;;;;;;7.95;2.35;;;;;;;26.81;45.86;101000.09;5052420;28;20487;-75
2022/06/25 04:16:01;;;;;;;2.58;2.00;;;;;;;26.17;47.28;101007.44;5072033;28;20020;-75
2022/06/25 04:18:26;;;;;;;3.70;2.10;;;;;;;26.12;47.00;101006.91;5053853;28;20066;-74
2022/06/25 04:20:52;;;;;;;4.70;2.25;;;;;;;25.80;47.34;101012.75;5053286;28;20020;-75
2022/06/25 04:23:17;;;;;;;4.65;2.20;;;;;;;25.04;49.30;101003.72;5053751;28;20029;-75
2022/06/25 04:25:42;;;;;;;3.22;2.22;;;;;;;26.06;46.82;101012.69;5053677;28;20020;-75
2022/06/25 04:30:52;;;;;;;3.78;2.25;;;;;;;25.30;48.57;101011.78;5072101;28;20191;-75
2022/06/25 04:33:17;;;;;;;2.75;2.20;;;;;;;26.84;45.44;101011.41;5052972;28;20113;-75
2022/06/25 04:35:43;;;;;;;4.97;2.00;;;;;;;25.38;48.49;101026.34;5053759;28;20077;-75
2022/06/25 04:38:09;;;;;;;4.20;2.28;;;;;;;25.60;48.21;101024.03;5053458;28;20017;-74
2022/06/25 04:40:34;;;;;;;3.65;2.05;;;;;;;26.37;46.64;101026.53;5067569;28;20465;-75
2022/06/25 04:43:00;;;;;;;3.38;2.22;;;;;;;25.59;48.00;101023.16;5090491;28;20387;-75
2022/06/25 04:45:25;;;;;;;5.47;2.05;;;;;;;25.94;47.56;101029.63;5090628;28;20059;-75
2022/06/25 04:47:51;;;;;;;3.10;2.05;;;;;;;26.12;46.22;101028.34;5090004;28;20456;-75
2022/06/25 04:50:16;;;;;;;3.90;1.98;;;;;;;25.65;47.59;101029.88;5090585;28;20016;-74
2022/06/25 04:52:41;;;;;;;2.70;1.90;;;;;;;25.13;48.88;101029.84;5091581;28;20124;-75
2022/06/25 04:55:07;;;;;;;4.47;2.08;;;;;;;26.21;47.09;101037.50;5089784;28;20016;-75
2022/06/25 04:57:33;;;;;;;4.80;2.30;;;;;;;24.79;50.58;101042.81;5090430;28;20028;-75
2022/06/25 04:59:58;;;;;;;4.18;2.50;;;;;;;26.55;46.10;101035.88;5090310;28;20055;-75
2022/06/25 05:02:23;;;;;;;5.60;2.15;;;;;;;25.89;47.02;101044.19;5089826;28;20031;-75
2022/06/25 05:04:49;;;;;;;4.25;2.70;;;;;;;25.09;49.42;101039.03;5090295;28;20423;-75
2022/06/25 05:07:14;;;;;;;4.50;2.10;;;;;;;27.61;43.73;101044.03;5090479;28;20039;-75
2022/06/25 05:09:40;;;;;;;5.65;2.22;;;;;;;25.31;48.60;101049.13;5089576;28;20032;-75
2022/06/25 05:12:06;;;;;;;5.75;2.00;;;;;;;25.61;47.04;101049.78;5090272;28;20024;-75
2022/06/25 05:14:31;;;;;;;2.83;1.77;;;;;;;26.27;45.80;101046.91;5090303;28;20008;-74
2022/06/25 05:16:57;;;;;;;4.45;2.50;;;;;;;27.03;44.49;101047.56;5089595;28;20111;-73
2022/06/25 05:19:22;;;;;;;4.35;2.05;;;;;;;27.19;44.80;101049.91;5090515;28;20177;-74
2022/06/25 05:21:48;;;;;;;3.25;1.67;;;;;;;27.04;44.31;101057.34;5090382;28;20016;-74
2022/06/25 05:24:13;;;;;;;5.95;2.63;;;;;;;27.74;42.76;101055.53;5090683;28;20024;-74
2022/06/25 05:26:38;;;;;;;7.10;2.08;;;;;;;27.40;43.52;101063.53;5093461;28;20027;-73
2022/06/25 05:29:04;;;;;;;8.00;1.90;;;;;;;28.89;40.52;101058.75;5095276;28;20055;-75
2022/06/25 05:31:29;;;;;;;4.80;1.92;;;;;;;28.58;41.31;101066.66;5093252;28;20122;-75
2022/06/25 05:33:54;;;;;;;5.45;2.15;;;;;;;28.22;41.92;101060.63;5094007;28;20054;-75
2022/06/25 05:36:20;;;;;;;4.57;1.90;;;;;;;27.93;42.35;101062.94;5093000;28;20042;-76
2022/06/25 05:38:45;;;;;;;5.75;2.10;;;;;;;26.78;44.44;101068.19;5094952;28;20016;-74
2022/06/25 05:41:11;;;;;;;5.63;2.20;;;;;;;27.38;43.61;101071.72;5080721;28;20504;-74
2022/06/25 05:43:38;;;;;;;6.10;2.08;;;;;;;27.86;42.21;101069.78;5055969;28;20021;-74
2022/06/25 05:46:04;;;;;;;6.00;2.08;;;;;;;27.88;42.29;101073.22;5074429;28;20024;-73
2022/06/25 05:48:29;;;;;;;5.32;2.35;;;;;;;28.33;41.98;101067.84;5056555;28;20028;-74
2022/06/25 05:50:56;;;;;;;6.28;1.92;;;;;;;27.06;43.58;101071.47;5055658;28;20361;-75
2022/06/25 05:53:21;;;;;;;3.67;2.17;;;;;;;28.22;41.85;101076.75;5056472;28;20025;-74
2022/06/25 05:55:47;;;;;;;4.75;1.83;;;;;;;28.23;41.32;101083.84;5056201;28;20020;-73
2022/06/25 05:58:13;;;;;;;8.82;2.40;;;;;;;28.66;41.52;101086.69;5073670;28;20035;-73
2022/06/25 06:00:39;;;;;;;4.60;1.98;;;;;;;28.76;40.52;101082.28;5074360;28;20086;-74
2022/06/25 06:03:05;;;;;;;10.63;2.90;;;;;;;28.83;40.25;101079.94;5056366;28;20032;-74
2022/06/25 06:05:30;;;;;;;7.13;2.10;;;;;;;28.79;39.96;101089.25;5055283;28;20024;-74
2022/06/25 06:07:55;;;;;;;2.72;1.95;;;;;;;28.54;41.17;101092.09;5056091;28;20097;-73
2022/06/25 06:10:21;;;;;;;3.17;2.10;;;;;;;30.12;38.25;101094.91;5056191;28;20052;-74
2022/06/25 06:12:46;;;;;;;4.20;1.85;;;;;;;29.54;39.60;101095.47;5073413;28;20469;-73
2022/06/25 06:15:12;;;;;;;10.05;2.10;;;;;;;29.56;38.78;101099.72;5055933;28;20063;-73
2022/06/25 06:17:38;;;;;;;5.13;2.38;;;;;;;28.88;39.34;101105.47;5056043;28;20139;-73
2022/06/25 06:20:04;;;;;;;2.72;1.55;;;;;;;30.28;37.60;101099.78;5055414;28;20031;-74
2022/06/25 06:22:30;;;;;;;6.25;1.80;;;;;;;30.67;36.90;101109.84;5055839;28;20032;-73
2022/06/25 06:24:55;;;;;;;3.97;1.75;;;;;;;30.07;37.47;101097.16;5055785;28;20013;-73
2022/06/25 06:27:21;;;;;;;5.55;1.98;;;;;;;29.22;38.72;101109.81;5054812;28;20458;-74
2022/06/25 06:29:47;;;;;;;5.20;1.40;;;;;;;31.35;34.91;101103.59;5055660;28;20021;-73
2022/06/25 06:32:12;;;;;;;4.60;1.52;;;;;;;30.83;35.29;101115.53;5055889;28;20020;-73
2022/06/25 06:34:38;;;;;;;2.85;1.80;;;;;;;30.05;36.40;101118.03;5054944;28;20016;-73
2022/06/25 06:37:04;;;;;;;3.38;1.50;;;;;;;28.90;39.08;101124.16;5054652;28;20073;-73
2022/06/25 06:39:29;;;;;;;2.55;1.50;;;;;;;30.07;37.44;101129.50;5054862;28;20059;-73
2022/06/25 06:41:54;;;;;;;5.38;1.90;;;;;;;30.07;37.62;101124.09;5055528;28;20028;-73
2022/06/25 06:44:20;;;;;;;3.17;1.35;;;;;;;28.52;40.38;101131.69;5073431;28;20033;-73
2022/06/25 06:46:45;;;;;;;5.38;1.70;;;;;;;27.85;41.80;101135.22;5054665;28;20473;-73
2022/06/25 06:49:10;;;;;;;3.83;1.58;;;;;;;28.15;41.06;101134.66;5073449;28;20398;-73
2022/06/25 06:51:36;;;;;;;4.68;1.40;;;;;;;29.37;39.17;101137.31;5073177;28;20025;-73
2022/06/25 06:54:01;;;;;;;2.10;1.55;;;;;;;28.15;41.27;101140.03;5054844;28;20021;-73
2022/06/25 06:56:27;;;;;;;3.88;2.15;;;;;;;28.71;39.79;101135.56;5073325;28;20492;-73
2022/06/25 06:58:53;;;;;;;4.10;1.85;;;;;;;28.05;41.08;101141.75;5055326;28;20012;-73
2022/06/25 07:01:19;;;;;;;5.05;1.70;;;;;;;27.06;43.47;101150.09;5054431;28;20032;-74
2022/06/25 07:03:45;;;;;;;7.85;2.40;;;;;;;28.34;40.81;101149.31;5073203;28;20107;-75
2022/06/25 07:06:10;;;;;;;5.20;2.28;;;;;;;28.54;41.17;101145.84;5073429;28;20589;-75
2022/06/25 07:08:35;;;;;;;3.38;2.42;;;;;;;27.67;42.26;101154.50;5054295;28;20036;-75
2022/06/25 07:11:01;;;;;;;4.82;2.35;;;;;;;28.07;42.04;101150.53;5055102;28;20027;-74
2022/06/25 07:13:26;;;;;;;3.28;2.15;;;;;;;27.70;42.37;101148.03;5072952;28;20099;-74
2022/06/25 07:15:51;;;;;;;7.32;2.30;;;;;;;27.57;43.18;101146.31;5054132;28;20105;-73
2022/06/25 07:18:17;;;;;;;3.22;1.88;;;;;;;26.97;44.08;101158.84;5054987;28;20476;-74
2022/06/25 07:20:43;;;;;;;4.25;2.25;;;;;;;27.35;43.77;101162.28;5054735;28;20024;-74
2022/06/25 07:23:08;;;;;;;5.35;2.45;;;;;;;26.96;44.69;101162.50;5054027;28;20029;-74
2022/06/25 07:25:34;;;;;;;8.52;2.58;;;;;;;27.31;43.52;101150.06;5072911;28;20032;-74
2022/06/25 07:27:59;;;;;;;5.30;2.10;;;;;;;28.43;41.45;101153.94;5054716;28;20056;-73
2022/06/25 07:30:25;;;;;;;5.10;2.45;;;;;;;29.91;39.33;101160.50;5054018;28;20484;-73
2022/06/25 07:32:50;;;;;;;6.55;2.42;;;;;;;28.93;41.29;101167.81;5054821;28;20484;-73
2022/06/25 07:35:15;;;;;;;7.13;2.50;;;;;;;29.54;40.18;101160.94;5073052;28;20016;-74
2022/06/25 07:37:44;;;;;;;4.15;2.33;;;;;;;29.74;39.04;101161.06;5071732;28;20028;-74
2022/06/25 07:40:10;;;;;;;5.00;2.15;;;;;;;29.22;39.98;101161.81;5072031;28;20053;-73
2022/06/25 07:42:36;;;;;;;4.80;1.85;;;;;;;30.13;38.49;101161.31;5072471;28;20024;-74
2022/06/25 07:45:01;;;;;;;5.53;2.38;;;;;;;30.17;37.90;101168.13;5053859;28;20048;-74
2022/06/25 07:47:27;;;;;;;5.45;2.35;;;;;;;29.26;40.25;101171.38;5054359;28;20017;-74
2022/06/25 07:52:56;;;;;;;6.65;2.28;;;;;;;28.75;40.62;101163.94;5010326;28;20057;-74
2022/06/25 07:55:21;;;;;;;3.63;2.10;;;;;;;27.98;42.23;101164.66;5010139;28;20445;-74
2022/06/25 07:57:46;;;;;;;7.28;2.20;;;;;;;29.55;38.89;101175.25;5020852;28;20043;-74
2022/06/25 08:00:12;;;;;;;3.75;2.08;;;;;;;28.19;41.63;101175.56;5054090;28;20538;-74
2022/06/25 08:02:38;;;;;;;6.82;2.35;;;;;;;28.18;41.89;101177.41;5054105;28;20031;-74
2022/06/25 08:05:03;;;;;;;4.85;2.22;;;;;;;28.04;41.93;101180.31;5053384;28;20021;-73
2022/06/25 08:07:29;;;;;;;3.08;2.08;;;;;;;28.99;40.58;101173.63;5053971;28;20025;-74
2022/06/25 08:09:54;;;;;;;3.65;2.05;;;;;;;29.28;40.17;101177.47;5072127;28;20031;-73
2022/06/25 08:12:20;;;;;;;2.88;1.70;;;;;;;27.66;41.97;101178.78;5071449;28;20032;-74
2022/06/25 08:14:45;;;;;;;4.47;2.10;;;;;;;28.98;40.51;101180.03;5071951;28;20035;-74
2022/06/25 08:17:10;;;;;;;4.63;1.90;;;;;;;29.40;39.97;101178.28;5071972;28;20107;-74
2022/06/25 08:19:36;;;;;;;6.57;2.10;;;;;;;28.80;39.85;101177.84;5053203;28;20027;-73
2022/06/25 08:22:02;;;;;;;5.47;2.13;;;;;;;28.57;40.76;101185.91;5053961;28;20029;-74
2022/06/25 08:24:27;;;;;;;4.85;1.75;;;;;;;29.81;38.39;101180.25;5053780;28;20032;-73
2022/06/25 08:26:52;;;;;;;2.40;1.50;;;;;;;28.25;41.40;101183.16;5053124;28;20056;-73
2022/06/25 08:29:18;;;;;;;3.65;1.83;;;;;;;30.82;37.10;101183.97;5053853;28;20450;-73
2022/06/25 08:31:43;;;;;;;3.00;1.45;;;;;;;29.56;38.89;101185.88;5053714;28;20040;-74
2022/06/25 08:34:08;;;;;;;6.05;1.67;;;;;;;30.21;38.00;101180.34;5070979;28;20579;-74
2022/06/25 08:36:34;;;;;;;3.38;1.70;;;;;;;30.26;37.45;101183.47;5053816;28;20032;-74
2022/06/25 08:38:59;;;;;;;6.45;1.70;;;;;;;30.71;36.79;101189.50;5071857;28;20500;-73
2022/06/25 08:41:26;;;;;;;3.72;1.55;;;;;;;29.03;38.89;101189.41;5081718;28;20048;-74
2022/06/25 08:43:52;;;;;;;3.03;1.38;;;;;;;28.96;39.28;101187.34;5091665;28;20111;-74
2022/06/25 08:46:18;;;;;;;5.13;1.88;;;;;;;28.77;38.91;101194.25;5091148;28;20474;-73
2022/06/25 08:48:49;;;;;;;4.80;1.50;;;;;;;28.08;41.00;101197.91;5091956;28;20028;-74
2022/06/25 08:51:16;;;;;;;4.32;1.60;;;;;;;28.79;40.09;101192.28;5090594;28;20476;-74
2022/06/25 08:53:42;;;;;;;5.68;2.00;;;;;;;30.33;37.52;101199.13;5090901;28;20035;-73
2022/06/25 08:56:09;;;;;;;5.93;2.42;;;;;;;29.51;38.98;101198.91;5090584;28;20031;-74
2022/06/25 08:58:35;;;;;;;2.55;1.60;;;;;;;29.07;40.21;101216.91;5090322;28;20028;-74
2022/06/25 09:01:00;;;;;;;5.63;1.98;;;;;;;28.76;41.26;101214.91;5093450;28;20107;-74
2022/06/25 09:03:26;;;;;;;7.15;2.17;;;;;;;28.83;41.12;101220.63;5095655;28;20387;-74
2022/06/25 09:05:51;;;;;;;4.78;1.92;;;;;;;28.63;42.44;101224.06;5094473;28;20036;-74
2022/06/25 09:08:17;;;;;;;6.53;2.15;;;;;;;27.96;44.71;101231.94;5093079;28;20019;-75
2022/06/25 09:10:52;;;;;;;9.32;2.33;;;;;;;26.44;49.82;101234.13;5093447;28;20073;-74
2022/06/25 09:13:24;;;;;;;8.55;3.45;;;;;;;27.23;47.55;101240.06;5094735;28;20023;-74
2022/06/25 09:15:49;;;;;;;6.25;3.13;;;;;;;28.09;46.60;101227.31;5092764;28;20032;-75
2022/06/25 09:18:16;;;;;;;7.07;2.83;;;;;;;27.74;46.53;101230.91;5093167;28;20024;-74
2022/06/25 09:21:07;;;;;;;7.53;2.70;;;;;;;27.42;47.07;101227.97;5093557;28;20027;-74
2022/06/25 09:23:35;;;;;;;6.55;3.15;;;;;;;26.46;50.93;101234.88;5092536;28;20016;-73
2022/06/25 09:26:02;;;;;;;6.38;3.40;;;;;;;27.93;47.41;101227.66;5093234;28;20332;-74
2022/06/25 09:28:33;;;;;;;5.50;2.88;;;;;;;27.76;47.43;101226.25;5092373;28;20116;-74
2022/06/25 09:30:58;;;;;;;5.05;2.60;;;;;;;27.24;47.30;101231.06;5093245;28;20020;-74
2022/06/25 09:33:24;;;;;;;7.35;3.08;;;;;;;25.55;51.88;101241.06;5094411;28;20356;-73
2022/06/25 09:35:54;;;;;;;4.10;2.20;;;;;;;26.31;49.89;101225.22;5092232;28;20491;-73
2022/06/25 09:38:20;;;;;;;7.13;2.70;;;;;;;26.85;48.30;101241.03;5092893;28;20024;-73
2022/06/25 09:40:52;;;;;;;9.10;2.60;;;;;;;26.95;49.06;101243.06;5092570;28;20044;-73
2022/06/25 09:43:23;;;;;;;5.32;2.42;;;;;;;26.03;50.10;101237.88;5091870;28;20551;-74
2022/06/25 09:45:52;;;;;;;7.22;2.63;;;;;;;26.62;48.61;101247.19;5094124;28;20055;-75
2022/06/25 09:48:21;;;;;;;5.18;2.20;;;;;;;26.59;49.78;101258.97;5094007;28;20051;-75
2022/06/25 09:51:16;;;;;;;8.90;3.10;;;;;;;25.36;52.45;101260.16;5091753;28;20055;-74
2022/06/25 09:53:47;;;;;;;7.65;2.90;;;;;;;26.48;51.28;101251.69;5092514;28;20028;-74
2022/06/25 09:56:15;;;;;;;4.95;2.33;;;;;;;26.44;50.30;101254.72;5092440;28;20395;-74
2022/06/25 09:58:43;;;;;;;7.57;2.63;;;;;;;26.73;50.78;101264.22;5091600;28;20551;-74
2022/06/25 10:01:08;;;;;;;6.25;3.05;;;;;;;27.25;48.56;101259.56;5092220;28;20387;-73
2022/06/25 10:03:36;;;;;;;6.03;3.25;;;;;;;27.92;47.20;101265.38;5091258;28;20020;-74
2022/06/25 10:06:02;;;;;;;7.10;3.70;;;;;;;25.19;53.25;101272.78;5092250;28;20027;-73
2022/06/25 10:08:30;;;;;;;5.13;2.72;;;;;;;26.76;50.61;101268.50;5092241;28;20032;-72
2022/06/25 10:10:55;;;;;;;7.50;2.85;;;;;;;26.79;50.17;101267.44;5091361;28;20072;-73
2022/06/25 10:13:22;;;;;;;5.22;3.70;;;;;;;27.51;48.14;101264.00;5093263;28;20031;-74
2022/06/25 10:15:47;;;;;;;7.30;3.03;;;;;;;27.74;47.16;101264.97;5093461;28;20094;-74
2022/06/25 10:18:13;;;;;;;6.45;3.25;;;;;;;26.47;48.52;101258.00;5092803;28;20497;-73
2022/06/25 10:20:41;;;;;;;6.45;2.83;;;;;;;27.38;47.06;101259.56;5092008;28;20465;-73
2022/06/25 10:23:08;;;;;;;8.23;3.42;;;;;;;27.46;46.91;101261.66;5091987;28;20035;-73
2022/06/25 10:25:34;;;;;;;7.07;2.80;;;;;;;27.45;46.87;101265.34;5092695;28;20032;-72
2022/06/25 10:28:05;;;;;;;5.82;2.67;;;;;;;28.28;44.58;101274.28;5091952;28;20113;-73
2022/06/25 10:30:48;;;;;;;5.63;2.60;;;;;;;27.86;45.11;101261.34;5092018;28;20050;-72
2022/06/25 10:33:22;;;;;;;8.43;2.92;;;;;;;29.43;43.57;101260.63;5091014;28;20024;-72
2022/06/25 10:35:49;;;;;;;8.00;3.15;;;;;;;29.48;43.21;101257.53;5093435;28;20574;-72
2022/06/25 10:38:17;;;;;;;6.32;3.10;;;;;;;29.61;42.81;101248.28;5093144;28;20031;-72
2022/06/25 10:40:50;;;;;;;4.43;2.80;;;;;;;30.69;40.82;101256.19;5090765;28;20048;-73
2022/06/25 10:43:37;;;;;;;6.55;3.17;;;;;;;31.04;38.73;101254.91;5091534;28;20109;-73
2022/06/25 10:46:21;;;;;;;4.95;2.88;;;;;;;30.93;39.81;101256.69;5090851;28;20035;-72
2022/06/25 10:49:02;;;;;;;4.80;3.85;;;;;;;30.07;41.10;101253.47;5091642;28;20024;-73
2022/06/25 10:51:47;;;;;;;6.22;3.90;;;;;;;29.77;40.20;101260.44;5091671;28;20024;-72
2022/06/25 10:54:12;;;;;;;5.60;3.20;;;;;;;30.99;40.17;101263.38;5092223;28;20073;-72
2022/06/25 10:56:46;;;;;;;6.28;3.08;;;;;;;30.81;39.44;101263.19;5091381;28;20027;-73
2022/06/25 10:59:32;;;;;;;7.55;3.20;;;;;;;31.47;38.69;101262.59;5091518;28;20024;-73
2022/06/25 11:02:03;;;;;;;5.72;3.45;;;;;;;29.32;40.19;101263.34;5073227;28;20052;-72
2022/06/25 11:04:30;;;;;;;4.18;3.08;;;;;;;32.78;37.30;101257.53;5091483;28;20379;-72
2022/06/25 11:07:17;;;;;;;3.63;2.78;;;;;;;33.88;33.98;101257.44;5092143;28;20020;-72
2022/06/25 11:09:59;;;;;;;11.05;3.97;;;;;;;33.79;33.92;101263.81;5091446;28;20024;-72
2022/06/25 11:12:34;;;;;;;4.00;2.75;;;;;;;32.47;35.18;101260.47;5091817;28;20551;-73
2022/06/25 11:15:03;;;;;;;5.68;2.75;;;;;;;34.47;32.84;101262.19;5091045;28;20110;-72
2022/06/25 11:17:29;;;;;;;4.78;2.85;;;;;;;33.49;34.21;101264.00;5091829;28;20024;-73
2022/06/25 11:20:02;;;;;;;2.53;2.00;;;;;;;30.28;38.68;101262.38;5091713;28;20399;-72
2022/06/25 11:22:28;;;;;;;3.30;2.40;;;;;;;30.56;38.52;101253.75;5090477;28;20024;-72
2022/06/25 11:30:23;;;;;;;3.13;2.60;;;;;;;31.01;36.36;101264.09;5093192;28;20035;-73
2022/06/25 11:32:51;;;;;;;3.60;2.67;;;;;;;32.08;34.42;101262.41;5091223;28;20073;-73
2022/06/25 11:35:16;;;;;;;4.50;2.50;;;;;;;32.42;34.43;101261.91;5091000;28;20024;-73
2022/06/25 11:37:41;;;;;;;2.78;1.92;;;;;;;32.19;34.30;101270.41;5091523;28;20034;-72
2022/06/25 11:40:15;;;;;;;6.00;2.97;;;;;;;32.12;34.89;101274.66;5087571;28;20048;-72
2022/06/25 11:42:40;;;;;;;3.55;3.00;;;;;;;32.94;33.70;101264.97;5053636;28;20028;-72
2022/06/25 11:45:06;;;;;;;5.78;2.90;;;;;;;32.60;34.03;101262.84;5054444;28;20107;-72
2022/06/25 11:47:32;;;;;;;3.63;2.50;;;;;;;33.24;32.40;101271.06;5054350;28;20020;-72